Time;durP1;ratioP1;P1;durP2;ratioP2;P2;SDS_P1;SDS_P2;PMS_P1;PMS_P2;Temp;Humidity;BMP_temperature;BMP_pressure;BME280_temperature;BME280_humidity;BME280_pressure;Samples;Min_cycle;Max_cycle;Signal;HPM_P1;HPM_P2
2023/09/16 00:02:22;;;;;;;10.02;4.78;;;;;;;-144.73;100.00;54440.53;5041403;28;20052;-70
2023/09/16 00:04:48;;;;;;;9.80;4.82;;;;;;;-144.73;100.00;54417.97;5040823;28;20025;-70
2023/09/16 00:07:15;;;;;;;10.70;4.85;;;;;;;-144.73;100.00;54444.66;5040827;28;20033;-70
2023/09/16 00:09:41;;;;;;;8.57;4.78;;;;;;;-144.73;100.00;54350.22;5040762;28;20021;-71
2023/09/16 00:12:07;;;;;;;10.75;4.55;;;;;;;-144.73;100.00;54420.00;5041648;28;20079;-70
2023/09/16 00:14:33;;;;;;;6.95;4.45;;;;;;;-144.73;100.00;54413.84;5057889;28;20022;-70
2023/09/16 00:17:00;;;;;;;9.25;4.88;;;;;;;-144.73;100.00;54407.69;5041378;28;20033;-69
2023/09/16 00:19:26;;;;;;;6.32;3.92;;;;;;;-144.73;100.00;54399.50;5041994;28;20029;-70
2023/09/16 00:21:52;;;;;;;7.82;4.45;;;;;;;-144.73;100.00;54362.53;5041400;28;20040;-70
2023/09/16 00:24:18;;;;;;;7.45;4.22;;;;;;;-144.73;100.00;54411.81;5041503;28;20082;-69
2023/09/16 00:26:43;;;;;;;9.40;4.53;;;;;;;-144.73;100.00;54420.00;5040480;28;20033;-70
2023/09/16 00:29:09;;;;;;;8.77;4.95;;;;;;;-144.73;100.00;54415.91;5041128;28;20029;-70
2023/09/16 00:31:36;;;;;;;15.48;4.57;;;;;;;-144.73;100.00;54436.44;5041289;28;20033;-69
2023/09/16 00:34:02;;;;;;;11.60;4.70;;;;;;;-144.73;100.00;54374.84;5041692;28;20025;-69
2023/09/16 00:36:28;;;;;;;7.10;5.20;;;;;;;-144.73;100.00;54415.91;5040466;28;20030;-70
2023/09/16 00:38:54;;;;;;;8.77;4.88;;;;;;;-144.73;100.00;54428.22;5041075;28;20043;-69
2023/09/16 00:41:19;;;;;;;8.82;4.75;;;;;;;-144.73;100.00;54424.13;5041183;28;20050;-69
2023/09/16 00:43:45;;;;;;;13.57;4.72;;;;;;;-144.73;100.00;54432.31;5041307;28;20049;-69
2023/09/16 00:46:11;;;;;;;11.00;4.75;;;;;;;-144.73;100.00;54395.38;5040214;28;20042;-70
2023/09/16 00:48:37;;;;;;;8.45;4.32;;;;;;;-144.73;100.00;54452.84;5040722;28;20017;-69
2023/09/16 00:51:06;;;;;;;9.80;5.15;;;;;;;-144.73;100.00;54448.75;5039828;28;20051;-69
2023/09/16 00:53:32;;;;;;;16.75;5.53;;;;;;;-144.73;100.00;54407.69;5058396;28;20022;-69
2023/09/16 00:55:59;;;;;;;8.90;4.95;;;;;;;-144.73;100.00;54387.19;5040468;28;20033;-69
2023/09/16 00:58:24;;;;;;;10.13;4.53;;;;;;;-144.73;100.00;54469.28;5040226;28;20032;-70
2023/09/16 01:00:50;;;;;;;10.07;5.53;;;;;;;-144.73;100.00;54407.69;5039975;28;20045;-69
2023/09/16 01:03:17;;;;;;;10.57;5.65;;;;;;;-144.73;100.00;54428.22;5041916;28;20469;-69
2023/09/16 01:05:46;;;;;;;9.00;4.93;;;;;;;-144.73;100.00;54424.13;5040604;28;20112;-69
2023/09/16 01:08:12;;;;;;;11.43;5.03;;;;;;;-144.73;100.00;54420.00;5041218;28;20032;-69
2023/09/16 01:10:40;;;;;;;14.18;6.28;;;;;;;-144.73;100.00;54420.00;5039541;28;20037;-70
2023/09/16 01:13:05;;;;;;;12.52;5.45;;;;;;;-144.73;100.00;54407.69;5040812;28;20030;-70
2023/09/16 01:15:37;;;;;;;9.43;5.53;;;;;;;-144.73;100.00;54415.91;5039853;28;20061;-69
2023/09/16 01:18:21;;;;;;;10.63;5.22;;;;;;;-144.73;100.00;54407.69;5040757;28;20045;-69
2023/09/16 01:20:48;;;;;;;7.70;4.85;;;;;;;-144.73;100.00;54444.66;5039275;28;20042;-69
2023/09/16 01:23:19;;;;;;;8.85;5.65;;;;;;;-144.73;100.00;54407.69;5040912;28;20394;-69
2023/09/16 01:25:44;;;;;;;8.90;5.78;;;;;;;-144.73;100.00;54461.06;5040284;28;20056;-70
2023/09/16 01:28:10;;;;;;;10.95;5.90;;;;;;;-144.73;100.00;54420.00;5040462;28;20025;-69
2023/09/16 01:30:39;;;;;;;8.10;5.25;;;;;;;-144.73;100.00;54428.22;5039738;28;20041;-69
2023/09/16 01:33:25;;;;;;;7.50;5.18;;;;;;;-144.73;100.00;54420.00;5040031;28;20025;-69
2023/09/16 01:36:00;;;;;;;10.20;6.10;;;;;;;-144.73;100.00;54452.84;5039937;28;20044;-69
2023/09/16 01:38:27;;;;;;;7.88;5.70;;;;;;;-144.73;100.00;54477.47;5040819;28;20032;-70
2023/09/16 01:40:55;;;;;;;9.45;4.85;;;;;;;-144.73;100.00;54454.91;5056871;28;20025;-69
2023/09/16 01:43:20;;;;;;;13.10;5.25;;;;;;;-144.73;100.00;54420.00;5040934;28;20017;-70
2023/09/16 01:45:46;;;;;;;9.82;5.80;;;;;;;-144.73;100.00;54420.00;5040021;28;20107;-69
2023/09/16 01:48:11;;;;;;;13.85;5.93;;;;;;;-144.73;100.00;54399.50;5056279;28;20041;-70
2023/09/16 01:50:37;;;;;;;13.75;5.28;;;;;;;-144.73;100.00;54448.75;5039215;28;20056;-70
2023/09/16 01:53:06;;;;;;;10.95;5.78;;;;;;;-144.73;100.00;54407.69;5057169;28;20036;-69
2023/09/16 01:55:32;;;;;;;9.52;5.53;;;;;;;-144.73;100.00;54420.00;5040250;28;20041;-70
2023/09/16 01:57:58;;;;;;;9.68;5.65;;;;;;;-144.73;100.00;54420.00;5040251;28;20542;-70
2023/09/16 02:00:23;;;;;;;12.13;5.70;;;;;;;-144.73;100.00;54448.75;5038857;28;20116;-69
2023/09/16 02:02:49;;;;;;;14.30;6.80;;;;;;;-144.73;100.00;54411.81;5040342;28;20021;-70
2023/09/16 02:05:16;;;;;;;9.57;5.57;;;;;;;-144.73;100.00;54374.84;5039414;28;20171;-71
2023/09/16 02:07:42;;;;;;;15.18;5.70;;;;;;;-144.73;100.00;54440.53;5040017;28;20036;-68
2023/09/16 02:10:08;;;;;;;10.13;6.22;;;;;;;-144.73;100.00;54420.00;5038980;28;20029;-68
2023/09/16 02:12:35;;;;;;;10.27;5.70;;;;;;;-144.73;100.00;54415.91;5039820;28;20029;-69
2023/09/16 02:15:01;;;;;;;8.70;5.70;;;;;;;-144.73;100.00;54452.84;5038438;28;20103;-69
2023/09/16 02:17:27;;;;;;;11.65;6.00;;;;;;;-144.73;100.00;54428.22;5039714;28;20032;-69
2023/09/16 02:19:52;;;;;;;8.15;6.15;;;;;;;-144.73;100.00;54440.53;5038667;28;20014;-69
2023/09/16 02:22:18;;;;;;;12.57;6.10;;;;;;;-144.73;100.00;54407.69;5039358;28;20017;-68
2023/09/16 02:24:43;;;;;;;11.70;6.05;;;;;;;-144.73;100.00;54420.00;5038769;28;20110;-72
2023/09/16 02:27:08;;;;;;;8.77;5.88;;;;;;;-144.73;100.00;54473.38;5039587;28;20495;-70
2023/09/16 02:29:34;;;;;;;9.85;6.00;;;;;;;-144.73;100.00;54487.75;5039362;28;20060;-70
2023/09/16 02:31:59;;;;;;;11.00;6.05;;;;;;;-144.73;100.00;54469.28;5038479;28;20534;-70
2023/09/16 02:34:25;;;;;;;12.57;6.97;;;;;;;-144.73;100.00;54436.44;5040009;28;20022;-70
2023/09/16 02:36:50;;;;;;;14.75;6.72;;;;;;;-144.73;100.00;54473.38;5038403;28;20068;-69
2023/09/16 02:39:16;;;;;;;13.77;7.38;;;;;;;-144.73;100.00;54430.28;5038872;28;20112;-70
2023/09/16 02:41:41;;;;;;;15.63;9.13;;;;;;;-144.73;100.00;54424.13;5037615;28;20415;-69
2023/09/16 02:44:07;;;;;;;9.25;6.28;;;;;;;-144.73;100.00;54415.91;5038608;28;20076;-70
2023/09/16 02:46:33;;;;;;;14.60;7.60;;;;;;;-144.73;100.00;54432.31;5037817;28;20033;-70
2023/09/16 02:48:59;;;;;;;11.30;7.90;;;;;;;-144.73;100.00;54436.44;5038926;28;20024;-70
2023/09/16 02:51:24;;;;;;;12.25;7.85;;;;;;;-144.73;100.00;54409.75;5037540;28;20038;-69
2023/09/16 02:53:53;;;;;;;11.45;6.93;;;;;;;-144.73;100.00;54420.00;5038997;28;20163;-70
2023/09/16 02:56:18;;;;;;;12.45;6.03;;;;;;;-144.73;100.00;54424.13;5037765;28;20045;-70
2023/09/16 02:58:44;;;;;;;15.30;9.10;;;;;;;-144.73;100.00;54399.50;5039212;28;20055;-70
2023/09/16 03:01:10;;;;;;;12.73;7.15;;;;;;;-144.73;100.00;54428.22;5037816;28;20069;-70
2023/09/16 03:03:36;;;;;;;9.30;6.50;;;;;;;-144.73;100.00;54448.75;5039348;28;20021;-70
2023/09/16 03:06:02;;;;;;;8.65;6.35;;;;;;;-144.73;100.00;54432.31;5055212;28;20029;-70
2023/09/16 03:08:27;;;;;;;13.05;6.93;;;;;;;-144.73;100.00;54436.44;5037633;28;20361;-70
2023/09/16 03:11:06;;;;;;;11.23;6.88;;;;;;;-144.73;100.00;54415.91;5037509;28;20132;-70
2023/09/16 03:13:32;;;;;;;17.17;7.55;;;;;;;-144.73;100.00;54444.66;5038232;28;20021;-70
2023/09/16 03:16:18;;;;;;;10.50;6.38;;;;;;;-144.73;100.00;54399.50;5038518;28;20041;-70
2023/09/16 03:18:45;;;;;;;14.07;6.72;;;;;;;-144.73;100.00;54407.69;5039434;28;20025;-70
2023/09/16 03:21:15;;;;;;;15.43;8.43;;;;;;;-144.73;100.00;54428.22;5038400;28;20034;-70
2023/09/16 03:23:42;;;;;;;14.07;7.18;;;;;;;-144.73;100.00;54436.44;5042234;28;20025;-70
2023/09/16 03:26:09;;;;;;;12.85;7.95;;;;;;;-144.73;100.00;54444.66;5042605;28;20034;-69
2023/09/16 03:28:34;;;;;;;13.40;7.53;;;;;;;-144.73;100.00;54448.75;5043298;28;20029;-70
2023/09/16 03:31:00;;;;;;;12.27;7.85;;;;;;;-144.73;100.00;54432.31;5042238;28;20037;-69
2023/09/16 03:33:25;;;;;;;12.52;7.68;;;;;;;-144.73;100.00;54428.22;5043288;28;20098;-70
2023/09/16 03:35:51;;;;;;;12.85;8.18;;;;;;;-144.73;100.00;54407.69;5042458;28;20163;-69
2023/09/16 03:38:17;;;;;;;14.90;8.05;;;;;;;-144.73;100.00;54407.69;5042289;28;20026;-70
2023/09/16 03:40:42;;;;;;;16.48;8.00;;;;;;;-144.73;100.00;54448.75;5041487;28;20084;-69
2023/09/16 03:43:08;;;;;;;14.60;8.20;;;;;;;-144.73;100.00;54391.28;5042785;28;20013;-69
2023/09/16 03:45:33;;;;;;;15.23;7.30;;;;;;;-144.73;100.00;54456.97;5042163;28;20041;-69
2023/09/16 03:47:58;;;;;;;16.80;7.25;;;;;;;-144.73;100.00;54428.22;5042725;28;20083;-69
2023/09/16 03:50:24;;;;;;;13.10;7.88;;;;;;;-144.73;100.00;54424.13;5041520;28;20126;-70
2023/09/16 03:52:50;;;;;;;16.52;7.78;;;;;;;-144.73;100.00;54444.66;5059591;28;20025;-70
2023/09/16 03:55:15;;;;;;;10.52;7.60;;;;;;;-144.73;100.00;54407.69;5058410;28;20037;-70
2023/09/16 03:57:41;;;;;;;13.85;6.53;;;;;;;-144.73;100.00;54436.44;5042175;28;20028;-70
2023/09/16 04:00:08;;;;;;;17.45;7.20;;;;;;;-144.73;100.00;54448.75;5042037;28;20030;-70
2023/09/16 04:02:33;;;;;;;16.30;7.88;;;;;;;-144.73;100.00;54452.84;5042357;28;20025;-70
2023/09/16 04:04:59;;;;;;;14.25;8.07;;;;;;;-144.73;100.00;54436.44;5042198;28;20025;-70
2023/09/16 04:07:24;;;;;;;18.20;7.57;;;;;;;-144.73;100.00;54473.38;5041572;28;20124;-70
2023/09/16 04:09:49;;;;;;;12.48;8.48;;;;;;;-144.73;100.00;54454.91;5042433;28;20052;-69
2023/09/16 04:12:15;;;;;;;12.07;8.07;;;;;;;-144.73;100.00;54440.53;5059482;28;20045;-69
2023/09/16 04:14:40;;;;;;;17.45;10.15;;;;;;;-144.73;100.00;54432.31;5040903;28;20021;-70
2023/09/16 04:17:06;;;;;;;26.63;8.07;;;;;;;-144.73;100.00;54444.66;5042899;28;20025;-70
2023/09/16 04:19:31;;;;;;;12.63;7.22;;;;;;;-144.73;100.00;54424.13;5042950;28;20021;-70
2023/09/16 04:21:57;;;;;;;13.27;7.38;;;;;;;-144.73;100.00;54456.97;5041215;28;20045;-70
2023/09/16 04:24:22;;;;;;;14.27;7.35;;;;;;;-144.73;100.00;54440.53;5042213;28;20081;-70
2023/09/16 04:26:48;;;;;;;12.50;6.85;;;;;;;-144.73;100.00;54440.53;5042055;28;20048;-70
2023/09/16 04:29:13;;;;;;;13.07;6.43;;;;;;;-144.73;100.00;54430.28;5041982;28;20089;-70
2023/09/16 04:31:38;;;;;;;15.55;7.93;;;;;;;-144.73;100.00;54436.44;5041379;28;20033;-70
2023/09/16 04:34:04;;;;;;;13.70;7.60;;;;;;;-144.73;100.00;54448.75;5041949;28;20093;-70
2023/09/16 04:36:30;;;;;;;18.15;8.30;;;;;;;-144.73;100.00;54420.00;5042144;28;20061;-70
2023/09/16 04:38:55;;;;;;;11.10;7.05;;;;;;;-144.73;100.00;54448.75;5041835;28;20468;-70
2023/09/16 04:41:21;;;;;;;10.90;7.07;;;;;;;-144.73;100.00;54469.28;5042221;28;20029;-70
2023/09/16 04:43:49;;;;;;;14.38;8.15;;;;;;;-144.73;100.00;54438.50;5058162;28;20447;-69
2023/09/16 04:46:16;;;;;;;11.40;7.50;;;;;;;-144.73;100.00;54432.31;5040867;28;20384;-70
2023/09/16 04:48:41;;;;;;;18.88;8.35;;;;;;;-144.73;100.00;54473.38;5043138;28;20121;-70
2023/09/16 04:51:07;;;;;;;14.20;8.07;;;;;;;-144.73;100.00;54467.22;5042322;28;20030;-70
2023/09/16 04:53:32;;;;;;;13.20;7.28;;;;;;;-144.73;100.00;54448.75;5042447;28;20085;-70
2023/09/16 04:55:59;;;;;;;13.35;7.63;;;;;;;-144.73;100.00;54463.13;5042216;28;20508;-70
2023/09/16 04:58:24;;;;;;;18.98;9.15;;;;;;;-144.73;100.00;54477.47;5044161;28;20349;-70
2023/09/16 05:00:51;;;;;;;13.18;7.20;;;;;;;-144.73;100.00;54452.84;5040808;28;20045;-70
2023/09/16 05:03:18;;;;;;;15.57;6.32;;;;;;;-144.73;100.00;54456.97;5042498;28;20120;-70
2023/09/16 05:05:46;;;;;;;13.13;7.85;;;;;;;-144.73;100.00;54467.22;5057432;28;20048;-70
2023/09/16 05:08:11;;;;;;;12.07;7.55;;;;;;;-144.73;100.00;54459.00;5042123;28;20022;-70
2023/09/16 05:10:37;;;;;;;13.23;8.57;;;;;;;-144.73;100.00;54436.44;5041300;28;20026;-70
2023/09/16 05:13:03;;;;;;;13.98;8.45;;;;;;;-144.73;100.00;54436.44;5041884;28;20027;-70
2023/09/16 05:15:28;;;;;;;19.17;9.73;;;;;;;-144.73;100.00;54444.66;5058122;28;20049;-70
2023/09/16 05:17:54;;;;;;;13.90;7.80;;;;;;;-144.73;100.00;54452.84;5041399;28;20093;-70
2023/09/16 05:20:19;;;;;;;12.88;7.32;;;;;;;-144.73;100.00;54448.75;5040957;28;20041;-70
2023/09/16 05:22:46;;;;;;;15.00;7.80;;;;;;;-144.73;100.00;54448.75;5057532;28;20025;-70
2023/09/16 05:25:12;;;;;;;11.40;6.90;;;;;;;-144.73;100.00;54426.16;5041388;28;20064;-70
2023/09/16 05:27:37;;;;;;;14.73;8.90;;;;;;;-144.73;100.00;54461.06;5042108;28;20022;-70
2023/09/16 05:30:03;;;;;;;11.07;6.68;;;;;;;-144.73;100.00;54452.84;5041567;28;20029;-70
2023/09/16 05:32:29;;;;;;;14.15;7.95;;;;;;;-144.73;100.00;54493.91;5041067;28;20120;-70
2023/09/16 05:34:55;;;;;;;15.02;7.15;;;;;;;-144.73;100.00;54465.16;5041579;28;20108;-70
2023/09/16 05:37:20;;;;;;;13.77;8.50;;;;;;;-144.73;100.00;54436.44;5041158;28;20085;-70
2023/09/16 05:39:45;;;;;;;10.50;7.53;;;;;;;-144.73;100.00;54440.53;5040852;28;20021;-70
2023/09/16 05:42:11;;;;;;;10.50;7.28;;;;;;;-144.73;100.00;54477.47;5041280;28;20519;-70
2023/09/16 05:44:36;;;;;;;10.60;6.85;;;;;;;-144.73;100.00;54428.22;5040924;28;20031;-70
2023/09/16 05:47:01;;;;;;;13.07;7.85;;;;;;;-144.73;100.00;54452.84;5040663;28;20125;-70
2023/09/16 05:49:27;;;;;;;12.27;7.00;;;;;;;-144.73;100.00;54452.84;5041270;28;20032;-70
2023/09/16 05:51:53;;;;;;;14.57;7.95;;;;;;;-144.73;100.00;54448.75;5039998;28;20064;-70
2023/09/16 05:54:18;;;;;;;10.13;6.70;;;;;;;-144.73;100.00;54432.31;5040612;28;20021;-70
2023/09/16 05:56:46;;;;;;;16.27;7.00;;;;;;;-144.73;100.00;54467.22;5039876;28;20037;-70
2023/09/16 05:59:12;;;;;;;11.93;5.63;;;;;;;-144.73;100.00;54475.44;5040177;28;20075;-70
2023/09/16 06:01:38;;;;;;;7.78;5.45;;;;;;;-144.73;100.00;54434.38;5039108;28;20085;-70
2023/09/16 06:04:03;;;;;;;17.65;6.45;;;;;;;-144.73;100.00;54444.66;5039896;28;20067;-70
2023/09/16 06:06:29;;;;;;;8.30;5.50;;;;;;;-144.73;100.00;54454.91;5039320;28;20061;-70
2023/09/16 06:08:55;;;;;;;10.38;6.00;;;;;;;-144.73;100.00;54477.47;5039541;28;20033;-70
2023/09/16 06:11:20;;;;;;;13.25;6.55;;;;;;;-144.73;100.00;54493.91;5038124;28;20117;-70
2023/09/16 06:13:46;;;;;;;11.60;6.65;;;;;;;-144.73;100.00;54434.38;5040107;28;20043;-69
2023/09/16 06:16:11;;;;;;;11.18;5.72;;;;;;;-144.73;100.00;54463.13;5039656;28;20083;-70
2023/09/16 06:18:37;;;;;;;14.38;5.50;;;;;;;-144.73;100.00;54448.75;5040407;28;20030;-70
2023/09/16 06:21:02;;;;;;;15.15;5.95;;;;;;;-144.73;100.00;54473.38;5039940;28;20044;-69
2023/09/16 06:23:28;;;;;;;11.77;5.90;;;;;;;-144.73;100.00;54420.00;5040362;28;20021;-69
2023/09/16 06:25:53;;;;;;;16.83;6.20;;;;;;;-144.73;100.00;54477.47;5039168;28;20087;-70
2023/09/16 06:28:19;;;;;;;9.32;5.90;;;;;;;-144.73;100.00;54444.66;5039202;28;20445;-70
2023/09/16 06:30:44;;;;;;;11.25;6.15;;;;;;;-144.73;100.00;54448.75;5038902;28;20029;-71
2023/09/16 06:33:10;;;;;;;9.93;5.47;;;;;;;-144.73;100.00;54485.69;5038933;28;20087;-70
2023/09/16 06:35:35;;;;;;;8.93;5.53;;;;;;;-144.73;100.00;54461.06;5037803;28;20041;-70
2023/09/16 06:38:01;;;;;;;17.05;5.43;;;;;;;-144.73;100.00;54456.97;5038261;28;20048;-69
2023/09/16 06:40:26;;;;;;;11.25;5.03;;;;;;;-144.73;100.00;54469.28;5038141;28;20041;-70
2023/09/16 06:42:52;;;;;;;18.42;5.60;;;;;;;-144.73;100.00;54477.47;5038394;28;20021;-70
2023/09/16 06:45:17;;;;;;;8.48;5.88;;;;;;;-144.73;100.00;54456.97;5037729;28;20063;-70
2023/09/16 06:47:42;;;;;;;10.90;6.40;;;;;;;-144.73;100.00;54411.81;5038147;28;20025;-70
2023/09/16 06:50:08;;;;;;;16.17;7.63;;;;;;;-144.73;100.00;54440.53;5037625;28;20056;-70
2023/09/16 06:52:34;;;;;;;9.63;5.55;;;;;;;-144.73;100.00;54393.34;5038161;28;20028;-70
2023/09/16 06:54:59;;;;;;;14.32;5.85;;;;;;;-144.73;100.00;54440.53;5037581;28;20516;-69
2023/09/16 06:57:26;;;;;;;12.43;5.57;;;;;;;-144.73;100.00;54459.00;5038488;28;20030;-70
2023/09/16 06:59:51;;;;;;;13.52;5.80;;;;;;;-144.73;100.00;54456.97;5037169;28;20053;-70
2023/09/16 07:02:16;;;;;;;11.15;5.30;;;;;;;-144.73;100.00;54479.53;5037809;28;20036;-70
2023/09/16 07:04:42;;;;;;;9.13;5.55;;;;;;;-144.73;100.00;54448.75;5037278;28;20557;-69
2023/09/16 07:07:11;;;;;;;12.20;5.88;;;;;;;-144.73;100.00;54407.69;5037726;28;20086;-71
2023/09/16 07:09:37;;;;;;;10.60;5.70;;;;;;;-144.73;100.00;54448.75;5038419;28;20025;-70
2023/09/16 07:12:05;;;;;;;13.18;6.05;;;;;;;-144.73;100.00;54456.97;5037774;28;20033;-70
2023/09/16 07:14:30;;;;;;;14.63;5.70;;;;;;;-144.73;100.00;54440.53;5038549;28;20045;-70
2023/09/16 07:16:56;;;;;;;10.10;5.57;;;;;;;-144.73;100.00;54489.81;5037658;28;20555;-70
2023/09/16 07:19:21;;;;;;;9.32;5.88;;;;;;;-144.73;100.00;54424.13;5038338;28;20116;-69
2023/09/16 07:21:46;;;;;;;11.23;5.60;;;;;;;-144.73;100.00;54450.81;5036928;28;20120;-70
2023/09/16 07:24:12;;;;;;;16.52;6.20;;;;;;;-144.73;100.00;54409.75;5037999;28;20040;-70
2023/09/16 07:26:37;;;;;;;13.40;6.53;;;;;;;-144.73;100.00;54432.31;5036255;28;20044;-70
2023/09/16 07:29:03;;;;;;;10.68;5.65;;;;;;;-144.73;100.00;54459.00;5037505;28;20069;-70
2023/09/16 07:31:28;;;;;;;12.30;6.05;;;;;;;-144.73;100.00;54436.44;5037295;28;20029;-70
2023/09/16 07:33:54;;;;;;;16.75;6.10;;;;;;;-144.73;100.00;54432.31;5037648;28;20522;-70
2023/09/16 07:36:19;;;;;;;11.63;5.30;;;;;;;-144.73;100.00;54436.44;5036843;28;20093;-70
2023/09/16 07:38:44;;;;;;;11.23;4.85;;;;;;;-144.73;100.00;54428.22;5031557;28;20045;-70
2023/09/16 07:41:10;;;;;;;12.55;4.82;;;;;;;-144.73;100.00;54420.00;5017262;28;20041;-69
2023/09/16 07:43:36;;;;;;;8.75;5.13;;;;;;;-144.73;100.00;54415.91;5017629;28;20036;-69
2023/09/16 07:46:01;;;;;;;12.80;5.45;;;;;;;-144.73;100.00;54436.44;5017300;28;20113;-70
2023/09/16 07:48:27;;;;;;;8.43;5.07;;;;;;;-144.73;100.00;54383.06;5016667;28;20033;-70
2023/09/16 07:50:54;;;;;;;11.27;5.38;;;;;;;-144.73;100.00;54370.75;5016345;28;20038;-70
2023/09/16 07:53:22;;;;;;;22.65;5.95;;;;;;;-144.73;100.00;54424.13;5016620;28;20022;-70
2023/09/16 07:55:48;;;;;;;9.13;5.18;;;;;;;-144.73;100.00;54385.13;5015496;28;20030;-70
2023/09/16 07:58:13;;;;;;;11.45;5.55;;;;;;;-144.73;100.00;54407.69;5016566;28;20018;-70
2023/09/16 08:00:38;;;;;;;6.82;4.72;;;;;;;-144.73;100.00;54424.13;5016402;28;20034;-70
2023/09/16 08:03:04;;;;;;;12.25;4.57;;;;;;;-144.73;100.00;54395.38;5017020;28;20033;-70
2023/09/16 08:05:29;;;;;;;8.50;4.57;;;;;;;-144.73;100.00;54407.69;5016993;28;20034;-69
2023/09/16 08:07:55;;;;;;;8.52;4.55;;;;;;;-144.73;100.00;54440.53;5016848;28;20036;-69
2023/09/16 08:10:20;;;;;;;13.02;5.35;;;;;;;-144.73;100.00;54407.69;5020077;28;20033;-70
2023/09/16 08:12:46;;;;;;;13.48;5.18;;;;;;;-144.73;100.00;54411.81;5019071;28;20026;-69
2023/09/16 08:15:11;;;;;;;11.27;5.25;;;;;;;-144.73;100.00;54424.13;5018843;28;20045;-69
2023/09/16 08:17:39;;;;;;;8.35;5.20;;;;;;;-144.73;100.00;54383.06;5019586;28;20088;-69
2023/09/16 08:20:06;;;;;;;9.77;5.30;;;;;;;-144.73;100.00;54428.22;5018578;28;20801;-70
2023/09/16 08:22:32;;;;;;;5.63;4.53;;;;;;;-144.73;100.00;54432.31;5019633;28;20094;-69
2023/09/16 08:24:57;;;;;;;5.57;3.70;;;;;;;-144.73;100.00;54463.13;5019284;28;20065;-69
2023/09/16 08:27:23;;;;;;;10.10;4.85;;;;;;;-144.73;100.00;54411.81;5019825;28;20032;-69
2023/09/16 08:29:52;;;;;;;7.53;4.72;;;;;;;-144.73;100.00;54407.69;5019513;28;20469;-68
2023/09/16 08:32:18;;;;;;;8.88;4.82;;;;;;;-144.73;100.00;54436.44;5018680;28;20067;-69
2023/09/16 08:34:43;;;;;;;9.60;4.85;;;;;;;-144.73;100.00;54395.38;5018767;28;20031;-69
2023/09/16 08:37:11;;;;;;;9.55;5.28;;;;;;;-144.73;100.00;54438.50;5019295;28;20164;-70
2023/09/16 08:39:37;;;;;;;10.05;4.78;;;;;;;-144.73;100.00;54407.69;5019836;28;20026;-69
2023/09/16 08:42:43;;;;;;;12.48;5.25;;;;;;;-144.73;100.00;54420.00;5017432;28;20045;-69
2023/09/16 08:45:14;;;;;;;9.88;4.70;;;;;;;-144.73;100.00;54411.81;5017283;28;20065;-69
2023/09/16 08:47:42;;;;;;;8.80;5.10;;;;;;;-144.73;100.00;54391.28;5049885;28;20029;-69
2023/09/16 08:50:09;;;;;;;8.27;4.75;;;;;;;-144.73;100.00;54407.69;5041000;28;20049;-68
2023/09/16 08:52:47;;;;;;;13.02;5.43;;;;;;;-144.73;100.00;54378.97;5038108;28;20095;-69
2023/09/16 08:55:14;;;;;;;12.98;4.95;;;;;;;-144.73;100.00;54407.69;5037923;28;20029;-69
2023/09/16 08:57:45;;;;;;;8.65;3.97;;;;;;;-144.73;100.00;54415.91;5040108;28;20085;-70
2023/09/16 09:00:11;;;;;;;12.73;4.75;;;;;;;-144.73;100.00;54407.69;5041006;28;20076;-70
2023/09/16 09:02:38;;;;;;;8.43;4.80;;;;;;;-144.73;100.00;54395.38;5038792;28;20025;-69
2023/09/16 09:05:06;;;;;;;9.52;4.30;;;;;;;-144.73;100.00;54407.69;5039158;28;20041;-69
2023/09/16 09:07:35;;;;;;;10.45;4.72;;;;;;;-144.73;100.00;54387.19;5039069;28;20025;-71
2023/09/16 09:10:01;;;;;;;6.97;4.55;;;;;;;-144.73;100.00;54391.28;5038169;28;20037;-71
2023/09/16 09:12:27;;;;;;;11.73;4.65;;;;;;;-144.73;100.00;54387.19;5038358;28;20025;-70
2023/09/16 09:14:54;;;;;;;8.00;4.45;;;;;;;-144.73;100.00;54374.84;5037430;28;20053;-71
2023/09/16 09:17:21;;;;;;;11.82;4.22;;;;;;;-144.73;100.00;54432.31;5038664;28;20112;-70
2023/09/16 09:19:47;;;;;;;8.45;4.50;;;;;;;-144.73;100.00;54411.81;5037716;28;20030;-70
2023/09/16 09:22:12;;;;;;;10.38;4.60;;;;;;;-144.73;100.00;54374.84;5059290;28;20022;-70
2023/09/16 09:24:38;;;;;;;7.90;3.65;;;;;;;-144.73;100.00;54313.28;5058310;28;20033;-69
2023/09/16 09:27:04;;;;;;;14.43;4.60;;;;;;;-144.73;100.00;54395.38;5057791;28;20025;-71
2023/09/16 09:29:29;;;;;;;6.90;4.05;;;;;;;-144.73;96.58;54411.81;5052689;28;20010;-71
2023/09/16 09:31:55;;;;;;;8.70;4.72;;;;;;;-144.73;95.82;54354.34;5037912;28;20112;-71
2023/09/16 09:34:20;;;;;;;6.82;4.55;;;;;;;-144.73;92.25;54387.19;5038926;28;20122;-70
2023/09/16 09:36:46;;;;;;;14.10;4.20;;;;;;;-144.73;90.09;54374.84;5038176;28;20041;-71
2023/09/16 09:39:15;;;;;;;5.60;4.03;;;;;;;-144.73;87.71;54372.81;5047657;28;20428;-70
2023/09/16 09:41:43;;;;;;;9.63;4.43;;;;;;;-144.73;88.96;54362.53;5057611;28;20037;-70
2023/09/16 09:44:10;;;;;;;8.95;4.35;;;;;;;-144.73;89.82;54358.44;5058973;28;20140;-71
2023/09/16 09:46:39;;;;;;;8.07;3.45;;;;;;;-144.73;88.08;54350.22;5057551;28;20171;-71
2023/09/16 09:49:05;;;;;;;10.88;4.75;;;;;;;-144.73;86.92;54362.53;5058248;28;20039;-71
2023/09/16 09:51:31;;;;;;;9.32;3.88;;;;;;;-144.73;86.26;54436.44;5055949;28;20049;-72
2023/09/16 09:53:56;;;;;;;7.78;3.55;;;;;;;-144.73;87.46;54378.97;5057263;28;20050;-71
2023/09/16 09:56:22;;;;;;;11.48;3.88;;;;;;;-144.73;86.23;54368.69;5048685;28;20113;-71
2023/09/16 09:58:48;;;;;;;14.70;3.78;;;;;;;-144.73;87.25;54381.00;5032248;28;20530;-72
2023/09/16 10:01:14;;;;;;;6.28;3.40;;;;;;;-144.73;83.81;54323.53;5032729;28;20112;-70
2023/09/16 10:03:47;;;;;;;4.35;3.42;;;;;;;-144.73;82.52;54319.44;5033894;28;20024;-70
2023/09/16 10:06:19;;;;;;;5.03;3.72;;;;;;;-144.73;81.14;54354.34;5032992;28;20037;-70
2023/09/16 10:08:44;;;;;;;5.55;3.67;;;;;;;-144.73;82.21;54333.81;5034324;28;20025;-70
2023/09/16 10:11:11;;;;;;;8.38;3.85;;;;;;;-144.73;78.75;54387.19;5033782;28;20029;-70
2023/09/16 10:13:36;;;;;;;8.18;4.15;;;;;;;-144.73;77.93;54333.81;5034363;28;20036;-70
2023/09/16 10:16:02;;;;;;;12.23;5.13;;;;;;;-144.73;79.33;54366.66;5034115;28;20037;-71
2023/09/16 10:18:28;;;;;;;9.50;3.97;;;;;;;-144.73;77.25;54323.53;5035054;28;20052;-70
2023/09/16 10:20:54;;;;;;;14.18;4.25;;;;;;;-144.73;76.47;54309.19;5036157;28;20030;-70
2023/09/16 10:23:22;;;;;;;9.90;4.88;;;;;;;-144.73;75.54;54350.22;5054710;28;20074;-70
2023/09/16 10:25:48;;;;;;;11.93;4.70;;;;;;;-144.73;74.75;54370.75;5053574;28;20036;-71
2023/09/16 10:28:13;;;;;;;13.68;5.03;;;;;;;-144.73;73.75;54292.75;5053482;28;20021;-71
2023/09/16 10:30:39;;;;;;;7.68;4.60;;;;;;;-144.73;74.22;54383.06;5053294;28;20033;-69
2023/09/16 10:33:07;;;;;;;8.02;4.32;;;;;;;-144.73;73.81;54321.50;5039151;28;20021;-69
2023/09/16 10:35:37;;;;;;;8.75;4.20;;;;;;;-144.73;68.30;54337.91;5034140;28;20038;-69
2023/09/16 10:38:04;;;;;;;9.13;3.85;;;;;;;-144.73;69.04;54362.53;5053779;28;20017;-69
2023/09/16 10:40:30;;;;;;;6.20;3.88;;;;;;;-144.73;68.94;54339.97;5047362;28;20041;-69
2023/09/16 10:42:56;;;;;;;8.20;4.40;;;;;;;-144.73;69.16;54366.66;5033677;28;20030;-69
2023/09/16 10:45:22;;;;;;;12.82;4.07;;;;;;;-144.73;67.99;54329.72;5032625;28;20064;-69
2023/09/16 10:47:52;;;;;;;7.43;4.00;;;;;;;-144.73;64.36;54376.91;5033047;28;20026;-69
2023/09/16 10:50:18;;;;;;;11.68;5.18;;;;;;;-144.73;66.46;54337.91;5032259;28;20038;-68
2023/09/16 10:53:05;;;;;;;8.77;4.43;;;;;;;-144.73;67.93;54337.91;5032844;28;20025;-68
2023/09/16 10:55:36;;;;;;;8.95;4.47;;;;;;;-144.73;66.54;54348.19;5033045;28;20036;-69
2023/09/16 10:58:10;;;;;;;10.77;4.95;;;;;;;-144.73;64.95;54331.75;5033311;28;20018;-70
2023/09/16 11:00:47;;;;;;;13.18;5.53;;;;;;;-144.73;67.69;54303.03;5032356;28;20049;-70
2023/09/16 11:03:14;;;;;;;9.50;4.63;;;;;;;-144.73;66.64;54370.75;5032590;28;20021;-70